METAR Data
IDs: Format: Raw Decoded Include TAF

Data at: 0258 UTC 19 Oct 2021

KHKA 190253Z AUTO 17003KT 10SM CLR 14/07 A3015 RMK AO2 SLP207 T01390072 53007 $
KHKA 190153Z AUTO 17003KT 10SM CLR 14/07 A3014 RMK AO2 SLP204 T01440072 $
KHKA 190053Z AUTO 14003KT 10SM CLR 15/07 A3013 RMK AO2 SLP203 T01500072 $
KHKA 182353Z AUTO 15003KT 10SM CLR 17/06 A3013 RMK AO2 SLP201 T01670061 10228 20161 56004 $
KHKA 182253Z AUTO 20003KT 10SM CLR 21/04 A3013 RMK AO2 SLP201 T02060044 $
KHKA 182153Z AUTO 18004KT 10SM CLR 22/04 A3013 RMK AO2 SLP202 T02220044 $
KHKA 182053Z AUTO VRB04KT 10SM CLR 23/04 A3014 RMK AO2 SLP205 T02280044 56023 $
KHKA 181953Z AUTO 19007KT 130V220 10SM CLR 22/04 A3015 RMK AO2 SLP210 T02220039 $
KHKA 181853Z AUTO 16006KT 10SM CLR 22/04 A3018 RMK AO2 SLP218 T02220044 $
KHKA 181753Z AUTO VRB06KT 10SM CLR 21/03 A3021 RMK AO2 SLP228 T02110033 10217 20067 58018 $
KHKA 181653Z AUTO VRB05KT 10SM CLR 21/06 A3024 RMK AO2 SLP239 T02060056 $
KHKA 181553Z AUTO 18006KT 10SM CLR 19/07 A3026 RMK AO2 SLP245 T01890072 $
KHKA 181453Z AUTO 21004KT 10SM CLR 16/09 A3026 RMK AO2 SLP246 T01560094 53014 $
KHKA 181353Z AUTO 00000KT 10SM CLR 13/09 A3025 RMK AO2 SLP243 T01280094 $
KHKA 181253Z AUTO 00000KT 10SM CLR 09/08 A3023 RMK AO2 SLP236 T00940078 $
KHKA 181153Z AUTO 22003KT 9SM CLR 07/05 A3022 RMK AO2 SLP233 T00670050 10106 20056 53009 $
KHKA 181053Z AUTO 00000KT 4SM BR FEW002 06/05 A3020 RMK AO2 SLP227 T00610050 $
KHKA 181045Z AUTO 00000KT 2 1/2SM BR SCT002 07/06 A3020 RMK AO2 T00670056 $
KHKA 181037Z AUTO 00000KT 7SM BKN002 08/06 A3020 RMK AO2 T00780061 $
KHKA 181029Z AUTO 12003KT 2SM BR BKN002 07/06 A3020 RMK AO2 T00720061 $
KHKA 181012Z AUTO 11003KT 3/4SM BR VV002 08/06 A3019 RMK AO2 T00780061 $
KHKA 181005Z AUTO 12003KT 2SM BR BKN002 08/06 A3019 RMK AO2 VIS 1 1/4V5 T00780061 $
KHKA 181002Z AUTO 12003KT 3SM BR SCT002 08/06 A3019 RMK AO2 T00780061 $
KHKA 180953Z AUTO 10003KT 10SM CLR 07/06 A3019 RMK AO2 SLP222 T00720056 $
KHKA 180853Z AUTO 00000KT 10SM CLR 08/06 A3019 RMK AO2 SLP222 T00830056 56007 $
KHKA 180753Z AUTO 00000KT 10SM CLR 08/06 A3020 RMK AO2 SLP224 T00830056 $
KHKA 180653Z AUTO 00000KT 10SM CLR 09/06 A3020 RMK AO2 SLP226 T00890061 $
KHKA 180553Z AUTO 21003KT 10SM CLR 11/06 A3021 RMK AO2 SLP229 T01060056 10161 20094 402280061 58005 $
KHKA 180453Z AUTO 00000KT 10SM CLR 11/06 A3022 RMK AO2 SLP232 T01110056 $
KHKA 180353Z AUTO 16003KT 10SM CLR 12/06 A3023 RMK AO2 SLP236 T01170056 $
KHKA 180253Z AUTO 17003KT 10SM CLR 12/06 A3023 RMK AO2 SLP235 T01170056 52008 $
KHKA 180153Z AUTO 00000KT 10SM CLR 12/04 A3022 RMK AO2 SLP233 T01220039 $
KHKA 180053Z AUTO 00000KT 10SM CLR 14/04 A3021 RMK AO2 SLP229 T01390044 $
KHKA 172353Z AUTO 29003KT 10SM CLR 16/04 A3020 RMK AO2 SLP227 T01610044 10228 20156 55005 $
KHKA 172253Z AUTO 00000KT 10SM CLR 19/04 A3020 RMK AO2 SLP226 T01940039 $
KHKA 172153Z AUTO 35003KT 10SM CLR 22/02 A3021 RMK AO2 SLP228 T02170017 $
KHKA 172053Z AUTO 00000KT 10SM CLR 22/01 A3022 RMK AO2 SLP231 T02220011 56021 $
KHKA 171953Z AUTO VRB04KT 10SM CLR 22/02 A3023 RMK AO2 SLP236 T02220022 $
KHKA 171853Z AUTO 00000KT 10SM CLR 22/02 A3025 RMK AO2 SLP242 T02170022 $
KHKA 171753Z AUTO 31005KT 10SM CLR 21/02 A3028 RMK AO2 SLP252 T02060022 10211 20061 58010 $
KHKA 171653Z AUTO 00000KT 10SM CLR 20/03 A3030 RMK AO2 SLP260 T02000028 $
KHKA 171553Z AUTO 33003KT 10SM CLR 18/04 A3031 RMK AO2 SLP263 T01830044 $